Time;durP1;ratioP1;P1;durP2;ratioP2;P2;SDS_P1;SDS_P2;PMS_P1;PMS_P2;Temp;Humidity;BMP_temperature;BMP_pressure;BME280_temperature;BME280_humidity;BME280_pressure;Samples;Min_cycle;Max_cycle;Signal;HPM_P1;HPM_P2
2022/03/07 00:01:33;;;;;;;13.55;8.30;;;0.30;99.90;;;;;;5042210;28;20045;-65
2022/03/07 00:04:02;;;;;;;12.43;7.72;;;0.30;99.90;;;;;;5033615;28;20088;-66
2022/03/07 00:06:29;;;;;;;14.13;7.82;;;0.30;99.90;;;;;;5032302;28;20125;-64
2022/03/07 00:08:58;;;;;;;14.15;8.25;;;0.20;99.90;;;;;;5033226;28;20045;-66
2022/03/07 00:11:26;;;;;;;14.00;8.57;;;0.20;99.90;;;;;;5031843;28;20045;-64
2022/03/07 00:13:53;;;;;;;16.70;7.78;;;0.20;99.90;;;;;;5032958;28;20102;-65
2022/03/07 00:16:20;;;;;;;13.70;8.73;;;0.10;99.90;;;;;;5034416;28;20107;-65
2022/03/07 00:18:48;;;;;;;12.98;7.40;;;0.20;99.90;;;;;;5033199;28;20079;-68
2022/03/07 00:21:15;;;;;;;12.63;7.90;;;0.10;99.90;;;;;;5031524;28;20064;-64
2022/03/07 00:23:42;;;;;;;13.05;7.43;;;0.20;99.90;;;;;;5031880;28;20531;-66
2022/03/07 00:26:10;;;;;;;13.23;9.20;;;0.10;99.90;;;;;;5033281;28;20053;-65
2022/03/07 00:28:37;;;;;;;12.70;8.45;;;0.20;99.90;;;;;;5032115;28;20045;-65
2022/03/07 00:31:06;;;;;;;13.90;7.80;;;0.10;99.90;;;;;;5030808;28;20045;-65
2022/03/07 00:33:37;;;;;;;14.63;8.20;;;0.10;99.90;;;;;;5029261;28;20531;-64
2022/03/07 00:36:05;;;;;;;;;;;0.00;99.90;;;;;;5022438;28;20104;-64
2022/03/07 00:38:34;;;;;;;14.77;8.48;;;0.00;99.90;;;;;;5030970;28;19955;-65
2022/03/07 00:41:02;;;;;;;14.43;7.80;;;0.00;99.90;;;;;;5029469;28;20580;-65
2022/03/07 00:43:29;;;;;;;13.10;7.97;;;0.00;99.90;;;;;;5029982;28;20048;-65
2022/03/07 00:45:57;;;;;;;12.40;7.97;;;0.00;99.90;;;;;;5023681;28;20049;-65
2022/03/07 00:48:25;;;;;;;10.93;7.35;;;0.00;99.90;;;;;;5031037;28;20073;-64
2022/03/07 00:50:53;;;;;;;14.90;8.60;;;0.00;99.90;;;;;;5037985;28;20469;-65
2022/03/07 00:53:23;;;;;;;14.10;7.85;;;0.00;99.90;;;;;;5031338;28;20504;-65
2022/03/07 00:55:54;;;;;;;11.95;7.55;;;0.00;99.90;;;;;;5037041;28;20045;-65
2022/03/07 00:58:23;;;;;;;11.98;7.95;;;0.00;99.90;;;;;;5031333;28;20354;-65
2022/03/07 01:00:50;;;;;;;13.32;7.70;;;0.00;99.90;;;;;;5046135;28;20508;-65
2022/03/07 01:03:19;;;;;;;13.02;7.45;;;0.00;99.90;;;;;;5014643;28;20045;-65
2022/03/07 01:05:47;;;;;;;13.98;8.30;;;0.00;99.90;;;;;;5029671;28;20508;-65
2022/03/07 01:08:15;;;;;;;12.23;7.68;;;0.00;99.90;;;;;;5042045;28;20060;-65
2022/03/07 01:10:44;;;;;;;12.95;7.80;;;0.00;99.90;;;;;;5036556;28;20102;-65
2022/03/07 01:13:11;;;;;;;17.98;7.82;;;0.00;99.90;;;;;;5048238;28;20073;-65
2022/03/07 01:15:39;;;;;;;11.45;7.40;;;0.00;99.90;;;;;;5041712;28;20061;-64
2022/03/07 01:18:06;;;;;;;12.93;8.18;;;0.00;99.90;;;;;;5041760;28;20076;-65
2022/03/07 01:20:33;;;;;;;14.80;9.05;;;-0.10;99.90;;;;;;5047499;28;20481;-65
2022/03/07 01:23:01;;;;;;;13.82;8.05;;;-0.10;99.90;;;;;;5045669;28;20045;-65
2022/03/07 01:25:29;;;;;;;16.05;8.07;;;-0.10;99.90;;;;;;5046015;28;20144;-64
2022/03/07 01:27:57;;;;;;;13.90;7.82;;;-0.10;99.90;;;;;;5038955;28;20455;-65
2022/03/07 01:30:24;;;;;;;12.98;8.02;;;-0.10;99.90;;;;;;5040376;28;20112;-63
2022/03/07 01:32:54;;;;;;;12.93;7.95;;;-0.10;99.90;;;;;;5029074;28;20040;-65
2022/03/07 01:35:24;;;;;;;14.25;8.93;;;-0.10;99.90;;;;;;5036995;28;20053;-65
2022/03/07 01:37:52;;;;;;;15.30;9.23;;;-0.20;99.90;;;;;;5039838;28;20045;-65
2022/03/07 01:40:20;;;;;;;15.45;9.23;;;-0.20;99.90;;;;;;5046227;28;20053;-64
2022/03/07 01:42:47;;;;;;;14.90;8.30;;;-0.20;99.90;;;;;;5044457;28;20072;-64
2022/03/07 01:45:17;;;;;;;14.55;9.20;;;-0.20;99.90;;;;;;5047843;28;20029;-64
2022/03/07 01:47:45;;;;;;;14.50;8.80;;;-0.20;99.90;;;;;;5044717;28;20124;-64
2022/03/07 01:50:16;;;;;;;13.50;9.15;;;-0.20;99.90;;;;;;5047868;28;20051;-63
2022/03/07 01:52:47;;;;;;;18.33;10.55;;;-0.20;99.90;;;;;;5023677;28;20531;-63
2022/03/07 01:55:16;;;;;;;16.15;9.45;;;-0.20;99.90;;;;;;5030056;28;20100;-63
2022/03/07 01:57:51;;;;;;;16.75;9.70;;;-0.20;99.90;;;;;;5046999;28;20362;-65
2022/03/07 02:00:21;;;;;;;17.48;9.95;;;-0.20;99.90;;;;;;5026592;28;20037;-65
2022/03/07 02:02:49;;;;;;;15.60;9.02;;;-0.20;99.90;;;;;;5030510;28;20085;-65
2022/03/07 02:05:22;;;;;;;15.60;9.52;;;-0.30;99.90;;;;;;5030374;28;20136;-65
2022/03/07 02:07:57;;;;;;;16.73;9.25;;;-0.30;99.90;;;;;;5045337;28;20124;-64
2022/03/07 02:10:28;;;;;;;16.23;9.30;;;-0.30;99.90;;;;;;5032600;28;20053;-65
2022/03/07 02:12:58;;;;;;;15.20;9.10;;;-0.30;99.90;;;;;;5034416;28;20107;-62
2022/03/07 02:15:26;;;;;;;17.65;9.95;;;-0.30;99.90;;;;;;5032113;28;20475;-65
2022/03/07 02:17:55;;;;;;;15.35;9.35;;;-0.30;99.90;;;;;;5034047;28;20037;-65
2022/03/07 02:20:23;;;;;;;17.02;9.80;;;-0.40;99.90;;;;;;5048376;28;20508;-65
2022/03/07 02:22:50;;;;;;;16.90;9.02;;;-0.30;99.90;;;;;;5041752;28;20100;-65
2022/03/07 02:25:17;;;;;;;15.15;9.60;;;-0.30;99.90;;;;;;5017925;28;20037;-65
2022/03/07 02:27:45;;;;;;;16.08;9.15;;;-0.30;99.90;;;;;;5031674;28;20196;-65
2022/03/07 02:30:14;;;;;;;16.27;9.50;;;-0.30;99.90;;;;;;5033709;28;20555;-64
2022/03/07 02:32:42;;;;;;;17.45;10.52;;;-0.40;99.90;;;;;;5031290;28;20416;-65
2022/03/07 02:35:14;;;;;;;14.68;9.85;;;-0.40;99.90;;;;;;5031987;28;20125;-64
2022/03/07 02:37:43;;;;;;;18.10;9.73;;;-0.40;99.90;;;;;;5036460;28;20065;-64
2022/03/07 02:40:12;;;;;;;19.33;10.43;;;-0.40;99.90;;;;;;5047043;28;20104;-64
2022/03/07 02:43:00;;;;;;;17.10;9.80;;;-0.40;99.90;;;;;;5027202;28;20057;-64
2022/03/07 02:45:28;;;;;;;14.82;9.32;;;-0.40;99.90;;;;;;5025842;28;20340;-64
2022/03/07 02:47:55;;;;;;;16.35;10.07;;;-0.40;99.90;;;;;;5044585;28;20120;-64
2022/03/07 02:50:23;;;;;;;16.13;9.38;;;-0.40;99.90;;;;;;5045803;28;20579;-64
2022/03/07 02:52:50;;;;;;;16.08;9.27;;;-0.50;99.90;;;;;;5032993;28;20045;-64
2022/03/07 02:55:18;;;;;;;15.52;9.18;;;-0.40;99.90;;;;;;5036669;28;20032;-63
2022/03/07 02:57:45;;;;;;;16.15;9.80;;;-0.40;99.90;;;;;;5034302;28;20111;-64
2022/03/07 03:00:13;;;;;;;16.05;10.07;;;-0.40;99.90;;;;;;5030136;28;20464;-65
2022/03/07 03:02:41;;;;;;;16.58;9.20;;;-0.40;99.90;;;;;;5023139;28;20073;-64
2022/03/07 03:05:09;;;;;;;16.10;9.55;;;-0.50;99.90;;;;;;5031072;28;20038;-65
2022/03/07 03:07:36;;;;;;;15.27;9.57;;;-0.50;99.90;;;;;;5035063;28;20493;-65
2022/03/07 03:10:05;;;;;;;15.95;9.35;;;-0.50;99.90;;;;;;5036887;28;20464;-65
2022/03/07 03:12:32;;;;;;;14.25;9.00;;;-0.50;99.90;;;;;;5027643;28;20041;-65
2022/03/07 03:15:00;;;;;;;16.90;9.38;;;-0.50;99.90;;;;;;5015999;28;20038;-66
2022/03/07 03:17:28;;;;;;;14.85;9.40;;;-0.50;99.90;;;;;;5029589;28;20571;-65
2022/03/07 03:19:55;;;;;;;14.43;9.38;;;-0.50;99.90;;;;;;5044021;28;20506;-65
2022/03/07 03:22:22;;;;;;;16.00;9.50;;;-0.50;99.90;;;;;;5047755;28;20067;-65
2022/03/07 03:24:50;;;;;;;14.63;8.98;;;-0.50;99.90;;;;;;5038813;28;20056;-65
2022/03/07 03:27:17;;;;;;;17.23;9.77;;;-0.50;99.90;;;;;;5042904;28;20433;-65
2022/03/07 03:29:44;;;;;;;15.52;9.50;;;-0.50;99.90;;;;;;5038091;28;20053;-65
2022/03/07 03:32:11;;;;;;;17.30;10.23;;;-0.50;99.90;;;;;;5028898;28;20072;-65
2022/03/07 03:34:39;;;;;;;16.08;10.35;;;-0.50;99.90;;;;;;5041058;28;20048;-65
2022/03/07 03:37:07;;;;;;;16.30;9.80;;;-0.50;99.90;;;;;;5046995;28;20461;-65
2022/03/07 03:39:34;;;;;;;15.55;9.02;;;-0.50;99.90;;;;;;5049791;28;20045;-65
2022/03/07 03:42:01;;;;;;;17.23;9.25;;;-0.50;99.90;;;;;;5033418;28;20401;-64
2022/03/07 03:44:29;;;;;;;14.30;8.95;;;-0.50;99.90;;;;;;5021912;28;20033;-65
2022/03/07 03:46:56;;;;;;;14.45;8.77;;;-0.50;99.90;;;;;;5047677;28;20197;-65
2022/03/07 03:49:23;;;;;;;16.00;8.85;;;-0.50;99.90;;;;;;5041257;28;20503;-64
2022/03/07 03:51:50;;;;;;;13.70;8.82;;;-0.50;99.90;;;;;;5040041;28;20041;-65
2022/03/07 03:54:18;;;;;;;11.82;7.78;;;-0.50;99.90;;;;;;5048937;28;20052;-65
2022/03/07 03:56:45;;;;;;;15.30;8.23;;;-0.50;99.90;;;;;;5047826;28;20041;-65
2022/03/07 03:59:13;;;;;;;16.58;8.77;;;-0.50;99.90;;;;;;5047024;28;20041;-65
2022/03/07 04:01:45;;;;;;;15.45;8.40;;;-0.50;99.90;;;;;;5030977;28;20052;-65
2022/03/07 04:04:13;;;;;;;15.02;8.40;;;-0.50;99.90;;;;;;5030212;28;20136;-65
2022/03/07 04:06:41;;;;;;;13.15;8.10;;;-0.50;99.90;;;;;;5032967;28;20056;-66
2022/03/07 04:09:10;;;;;;;13.13;8.32;;;-0.50;99.90;;;;;;5041635;28;20047;-66
2022/03/07 04:11:38;;;;;;;14.38;8.75;;;-0.50;99.90;;;;;;5030137;28;20053;-64
2022/03/07 04:14:05;;;;;;;12.55;7.53;;;-0.50;99.90;;;;;;5027661;28;20053;-64
2022/03/07 04:16:32;;;;;;;14.60;9.05;;;-0.50;99.90;;;;;;5024472;28;20041;-65
2022/03/07 04:19:00;;;;;;;15.05;8.48;;;-0.50;99.90;;;;;;5034588;28;20217;-65
2022/03/07 04:21:27;;;;;;;12.77;8.18;;;-0.50;99.90;;;;;;5036896;28;20102;-65
2022/03/07 04:23:54;;;;;;;12.43;8.30;;;-0.60;99.90;;;;;;5036854;28;20045;-66
2022/03/07 04:26:22;;;;;;;14.10;8.35;;;-0.60;99.90;;;;;;5037169;28;20048;-64
2022/03/07 04:28:49;;;;;;;14.90;9.18;;;-0.60;99.90;;;;;;5041118;28;20045;-66
2022/03/07 04:31:16;;;;;;;13.25;9.13;;;-0.60;99.90;;;;;;5034189;28;20037;-65
2022/03/07 04:33:44;;;;;;;13.35;8.95;;;-0.70;99.90;;;;;;5036766;28;20041;-66
2022/03/07 04:36:13;;;;;;;18.02;9.55;;;-0.70;99.90;;;;;;5035258;28;20037;-65
2022/03/07 04:38:41;;;;;;;19.75;10.65;;;-0.70;99.90;;;;;;5037293;28;20033;-66
2022/03/07 04:41:08;;;;;;;18.23;10.40;;;-0.70;99.90;;;;;;5031173;28;20398;-66
2022/03/07 04:43:35;;;;;;;16.15;9.35;;;-0.80;99.90;;;;;;5037709;28;20060;-65
2022/03/07 04:46:04;;;;;;;13.60;8.93;;;-0.90;99.90;;;;;;5041217;28;20041;-66
2022/03/07 04:48:31;;;;;;;18.35;9.00;;;-0.90;99.90;;;;;;5039517;28;20038;-65
2022/03/07 04:50:58;;;;;;;19.98;9.98;;;-1.00;99.90;;;;;;5031471;28;20076;-65
2022/03/07 04:53:26;;;;;;;14.07;8.73;;;-1.10;99.90;;;;;;5038371;28;20504;-64
2022/03/07 04:55:54;;;;;;;17.92;8.90;;;-1.10;99.90;;;;;;5038393;28;20041;-65
2022/03/07 04:58:21;;;;;;;15.10;9.30;;;-1.20;99.90;;;;;;5048201;28;20044;-66
2022/03/07 05:00:48;;;;;;;16.73;10.70;;;-1.20;99.90;;;;;;5039421;28;20041;-64
2022/03/07 05:03:16;;;;;;;18.55;10.48;;;-1.30;99.90;;;;;;5030161;28;20045;-64
2022/03/07 05:05:43;;;;;;;17.13;10.40;;;-1.30;99.90;;;;;;5020271;28;20096;-65
2022/03/07 05:08:11;;;;;;;21.13;12.20;;;-1.30;99.90;;;;;;5040322;28;20454;-65
2022/03/07 05:10:38;;;;;;;17.08;10.52;;;-1.40;99.90;;;;;;5029736;28;20045;-65
2022/03/07 05:13:05;;;;;;;18.90;10.85;;;-1.40;99.90;;;;;;5045373;28;20045;-65
2022/03/07 05:15:33;;;;;;;20.02;11.27;;;-1.40;99.90;;;;;;5025308;28;20046;-65
2022/03/07 05:18:00;;;;;;;20.10;11.30;;;-1.40;99.90;;;;;;5035574;28;20476;-65
2022/03/07 05:20:27;;;;;;;17.83;10.82;;;-1.40;99.90;;;;;;5040043;28;20041;-67
2022/03/07 05:23:14;;;;;;;21.33;12.00;;;-1.50;99.90;;;;;;5039167;28;20042;-64
2022/03/07 05:25:42;;;;;;;18.63;10.35;;;-1.50;99.90;;;;;;5038591;28;20488;-66
2022/03/07 05:28:09;;;;;;;17.70;10.02;;;-1.60;99.90;;;;;;5047306;28;20053;-65
2022/03/07 05:30:36;;;;;;;22.40;11.63;;;-1.70;99.90;;;;;;5034709;28;20416;-65
2022/03/07 05:33:03;;;;;;;18.73;10.73;;;-1.70;99.90;;;;;;5029444;28;20046;-66
2022/03/07 05:35:31;;;;;;;20.67;11.68;;;-1.80;99.90;;;;;;5029587;28;20041;-65
2022/03/07 05:37:58;;;;;;;17.30;10.25;;;-1.90;99.90;;;;;;5040801;28;20043;-65
2022/03/07 05:40:26;;;;;;;17.60;11.00;;;-2.00;99.90;;;;;;5050294;28;20387;-65
2022/03/07 05:42:54;;;;;;;17.98;11.50;;;-2.10;99.90;;;;;;5038112;28;20044;-65
2022/03/07 05:45:21;;;;;;;19.38;11.20;;;-2.20;99.90;;;;;;5050579;28;20041;-65
2022/03/07 05:47:48;;;;;;;20.17;11.32;;;-2.20;99.90;;;;;;5044962;28;20070;-65
2022/03/07 05:50:16;;;;;;;25.77;12.18;;;-2.30;99.90;;;;;;5045760;28;20053;-65
2022/03/07 05:52:43;;;;;;;20.38;11.63;;;-2.40;99.90;;;;;;5043580;28;20508;-66
2022/03/07 05:55:11;;;;;;;30.60;14.90;;;-2.40;99.90;;;;;;5048709;28;20413;-66
2022/03/07 05:57:38;;;;;;;22.58;12.35;;;-2.50;99.90;;;;;;5049830;28;20385;-65
2022/03/07 06:00:08;;;;;;;22.75;11.77;;;-2.50;99.90;;;;;;5022158;28;20492;-66
2022/03/07 06:02:35;;;;;;;22.10;12.65;;;-2.50;99.90;;;;;;5023183;28;20046;-66
2022/03/07 06:05:04;;;;;;;21.55;12.63;;;-2.50;99.90;;;;;;5027284;28;20497;-65
2022/03/07 06:07:31;;;;;;;24.50;13.05;;;-2.60;99.90;;;;;;5036342;28;20046;-66
2022/03/07 06:09:58;;;;;;;20.38;11.55;;;-2.50;99.90;;;;;;5028940;28;20045;-66
2022/03/07 06:12:26;;;;;;;20.90;12.77;;;-2.50;99.90;;;;;;5033522;28;20535;-66
2022/03/07 06:14:54;;;;;;;19.58;11.57;;;-2.50;99.90;;;;;;5031121;28;20137;-65
2022/03/07 06:17:21;;;;;;;19.80;12.32;;;-2.50;99.90;;;;;;5040175;28;20496;-66
2022/03/07 06:19:49;;;;;;;20.15;12.35;;;-2.50;99.90;;;;;;5032733;28;20533;-65
2022/03/07 06:22:16;;;;;;;21.88;12.05;;;-2.40;99.90;;;;;;5032185;28;20038;-67
2022/03/07 06:24:43;;;;;;;22.60;12.73;;;-2.40;99.90;;;;;;5036747;28;20049;-65
2022/03/07 06:27:11;;;;;;;23.25;12.45;;;-2.30;99.90;;;;;;5038326;28;20059;-66
2022/03/07 06:29:38;;;;;;;22.15;12.10;;;-2.30;99.90;;;;;;5042372;28;20056;-66
2022/03/07 06:32:06;;;;;;;22.90;12.88;;;-2.20;99.90;;;;;;5031013;28;20480;-65
2022/03/07 06:34:33;;;;;;;22.67;12.18;;;-2.20;99.90;;;;;;5040272;28;20045;-65
2022/03/07 06:37:01;;;;;;;20.10;12.15;;;-2.20;99.90;;;;;;5041825;28;20187;-65
2022/03/07 06:39:29;;;;;;;23.42;12.55;;;-2.10;99.90;;;;;;5032506;28;20404;-66
2022/03/07 06:41:56;;;;;;;28.00;13.55;;;-2.10;99.90;;;;;;5031541;28;20041;-66
2022/03/07 06:44:24;;;;;;;25.60;14.50;;;-2.00;99.90;;;;;;5039193;28;20059;-65
2022/03/07 06:46:51;;;;;;;25.13;13.68;;;-1.90;99.90;;;;;;5036627;28;20041;-66
2022/03/07 06:49:18;;;;;;;20.95;12.02;;;-1.90;99.90;;;;;;5033067;28;20049;-65
2022/03/07 06:51:45;;;;;;;21.63;12.75;;;-1.80;99.90;;;;;;5033993;28;20592;-66
2022/03/07 06:54:13;;;;;;;23.05;12.75;;;-1.80;99.90;;;;;;5030984;28;20427;-66
2022/03/07 06:56:40;;;;;;;23.33;12.70;;;-1.70;99.90;;;;;;5036091;28;20045;-66
2022/03/07 06:59:07;;;;;;;22.20;13.27;;;-1.60;99.90;;;;;;5038755;28;20037;-66
2022/03/07 07:01:35;;;;;;;21.98;13.13;;;-1.60;99.90;;;;;;5040387;28;20516;-65
2022/03/07 07:04:02;;;;;;;28.63;13.70;;;-1.40;99.90;;;;;;5037017;28;20045;-65
2022/03/07 07:06:30;;;;;;;21.90;12.85;;;-1.30;99.90;;;;;;5038097;28;20508;-65
2022/03/07 07:08:57;;;;;;;20.95;12.50;;;-1.20;99.90;;;;;;5034094;28;20041;-65
2022/03/07 07:11:25;;;;;;;21.45;13.55;;;-1.20;99.90;;;;;;5034284;28;20049;-66
2022/03/07 07:13:52;;;;;;;21.15;13.25;;;-1.10;99.90;;;;;;5036015;28;20124;-66
2022/03/07 07:16:19;;;;;;;22.15;12.88;;;-1.00;99.90;;;;;;5039803;28;20047;-65
2022/03/07 07:18:47;;;;;;;19.00;12.68;;;-1.00;99.90;;;;;;5036169;28;20068;-65
2022/03/07 07:21:14;;;;;;;25.80;13.10;;;-0.90;99.90;;;;;;5041315;28;20043;-66
2022/03/07 07:23:41;;;;;;;21.02;13.57;;;-0.90;99.90;;;;;;5043346;28;20029;-67
2022/03/07 07:26:10;;;;;;;22.15;13.18;;;-0.80;99.90;;;;;;5034499;28;20530;-65
2022/03/07 07:28:37;;;;;;;23.05;13.45;;;-0.70;99.90;;;;;;5044253;28;20045;-66
2022/03/07 07:31:05;;;;;;;20.42;12.43;;;-0.60;99.90;;;;;;5033209;28;20069;-66
2022/03/07 07:33:32;;;;;;;19.42;12.50;;;-0.50;99.90;;;;;;5032113;28;20095;-65
2022/03/07 07:36:00;;;;;;;20.65;13.35;;;-0.50;99.90;;;;;;5031229;28;20069;-67
2022/03/07 07:38:27;;;;;;;21.77;13.60;;;-0.40;99.90;;;;;;5037957;28;20434;-66
2022/03/07 07:40:55;;;;;;;20.30;12.88;;;-0.30;99.90;;;;;;5045772;28;20581;-65
2022/03/07 07:43:23;;;;;;;22.20;12.88;;;-0.20;99.90;;;;;;5017910;28;20418;-66
2022/03/07 07:45:50;;;;;;;22.25;14.40;;;-0.20;99.90;;;;;;5038177;28;20041;-69
2022/03/07 07:48:18;;;;;;;22.17;13.43;;;-0.10;99.90;;;;;;5009377;28;20432;-69
2022/03/07 07:50:45;;;;;;;24.60;14.75;;;0.00;99.90;;;;;;5043095;28;20122;-68
2022/03/07 07:53:13;;;;;;;22.40;14.60;;;0.20;99.90;;;;;;5033634;28;20038;-69
2022/03/07 07:55:40;;;;;;;21.85;14.18;;;0.30;99.90;;;;;;5041512;28;20048;-69
2022/03/07 07:58:08;;;;;;;24.20;15.48;;;0.40;99.90;;;;;;5038388;28;20075;-69
2022/03/07 08:00:35;;;;;;;35.85;16.95;;;0.50;99.90;;;;;;5037732;28;20176;-68
2022/03/07 08:03:03;;;;;;;22.63;15.02;;;0.50;99.90;;;;;;5036684;28;20057;-69
2022/03/07 08:05:31;;;;;;;27.63;16.15;;;0.60;99.90;;;;;;5037005;28;20148;-68
2022/03/07 08:07:59;;;;;;;25.00;16.15;;;0.70;99.90;;;;;;5035368;28;20053;-67
2022/03/07 08:10:26;;;;;;;30.30;16.98;;;0.60;99.90;;;;;;5030043;28;20046;-69
2022/03/07 08:12:53;;;;;;;26.00;16.63;;;0.70;99.90;;;;;;5042012;28;20122;-68
2022/03/07 08:15:21;;;;;;;26.80;15.27;;;0.70;99.90;;;;;;5041677;28;20068;-68
2022/03/07 08:17:50;;;;;;;27.65;16.77;;;0.90;99.90;;;;;;5022256;28;20055;-69
2022/03/07 08:20:23;;;;;;;26.65;16.38;;;0.90;99.90;;;;;;5026034;28;20045;-69
2022/03/07 08:22:51;;;;;;;29.20;17.75;;;1.00;99.90;;;;;;5046188;28;20048;-69
2022/03/07 08:25:21;;;;;;;25.30;15.55;;;1.10;99.90;;;;;;5036889;28;20067;-69
2022/03/07 08:27:48;;;;;;;27.50;15.85;;;1.20;99.90;;;;;;5033353;28;20137;-67
2022/03/07 08:30:18;;;;;;;30.67;18.02;;;1.30;99.90;;;;;;5019811;28;20045;-69
2022/03/07 08:32:45;;;;;;;26.15;16.50;;;1.30;99.90;;;;;;5035941;28;20045;-69
2022/03/07 08:35:13;;;;;;;28.33;17.48;;;1.40;99.90;;;;;;5033352;28;20113;-69
2022/03/07 08:37:42;;;;;;;26.25;15.88;;;1.50;99.90;;;;;;5031749;28;20042;-67
2022/03/07 08:40:10;;;;;;;27.73;16.80;;;1.60;99.90;;;;;;5050215;28;20061;-68
2022/03/07 08:42:39;;;;;;;27.15;17.05;;;1.80;99.90;;;;;;5033367;28;20128;-69
2022/03/07 08:45:07;;;;;;;25.60;16.38;;;1.90;99.90;;;;;;5041436;28;20550;-68
2022/03/07 08:47:36;;;;;;;28.92;16.05;;;1.90;99.90;;;;;;5035748;28;20048;-68
2022/03/07 08:50:10;;;;;;;27.75;17.60;;;2.10;99.90;;;;;;5015732;28;20045;-68
2022/03/07 08:52:38;;;;;;;26.63;17.13;;;2.10;99.90;;;;;;5038699;28;20061;-69
2022/03/07 08:55:07;;;;;;;25.15;16.85;;;2.20;99.90;;;;;;5048679;28;20048;-69
2022/03/07 08:57:35;;;;;;;26.85;17.38;;;2.40;99.90;;;;;;5052916;28;20456;-69
2022/03/07 09:00:12;;;;;;;24.23;16.02;;;2.40;99.90;;;;;;5040664;28;20033;-69
2022/03/07 09:02:46;;;;;;;27.23;17.38;;;2.60;99.90;;;;;;5026181;28;20065;-69
2022/03/07 09:05:14;;;;;;;27.35;17.15;;;2.60;99.90;;;;;;5031507;28;20065;-69
2022/03/07 09:07:42;;;;;;;28.65;16.75;;;2.60;99.90;;;;;;5032347;28;20072;-68
2022/03/07 09:10:10;;;;;;;25.13;15.40;;;2.60;99.90;;;;;;5029467;28;20061;-68
2022/03/07 09:12:37;;;;;;;24.77;15.77;;;2.70;99.90;;;;;;5015984;28;20424;-69
2022/03/07 09:15:05;;;;;;;23.92;14.68;;;2.90;99.90;;;;;;5015929;28;20049;-69
2022/03/07 09:17:33;;;;;;;20.70;13.50;;;3.20;99.90;;;;;;5030718;28;20128;-69
2022/03/07 09:20:00;;;;;;;19.60;13.43;;;3.40;99.90;;;;;;5034471;28;20427;-69
2022/03/07 09:22:31;;;;;;;23.70;13.48;;;3.60;99.90;;;;;;5033851;28;20045;-69
2022/03/07 09:24:59;;;;;;;20.52;13.82;;;3.70;99.90;;;;;;5029045;28;20104;-68
2022/03/07 09:27:26;;;;;;;21.98;14.35;;;3.80;99.90;;;;;;5033369;28;20041;-69
2022/03/07 09:29:53;;;;;;;18.92;13.55;;;4.00;99.90;;;;;;5039523;28;20067;-69
2022/03/07 09:32:21;;;;;;;19.30;13.23;;;4.10;99.90;;;;;;5014944;28;20417;-69
2022/03/07 09:34:48;;;;;;;20.55;13.45;;;4.30;99.90;;;;;;5031122;28;20129;-68
2022/03/07 09:37:16;;;;;;;19.83;14.05;;;4.60;99.90;;;;;;5032602;28;20092;-69
2022/03/07 09:39:44;;;;;;;22.10;14.85;;;4.90;99.60;;;;;;5034498;28;20046;-69
2022/03/07 09:42:11;;;;;;;23.50;14.93;;;4.90;98.80;;;;;;5033871;28;20045;-68
2022/03/07 09:44:39;;;;;;;26.13;15.00;;;4.80;98.50;;;;;;5026027;28;20127;-69
2022/03/07 09:47:06;;;;;;;22.45;15.07;;;4.70;98.70;;;;;;5026340;28;20084;-68
2022/03/07 09:49:34;;;;;;;22.17;15.27;;;4.40;98.60;;;;;;5020231;28;20061;-68
2022/03/07 09:52:02;;;;;;;22.05;15.50;;;4.20;98.60;;;;;;5032779;28;20095;-69
2022/03/07 09:54:29;;;;;;;22.77;14.90;;;4.10;98.80;;;;;;5034472;28;20068;-68
2022/03/07 09:56:56;;;;;;;25.33;14.50;;;3.90;98.90;;;;;;5039777;28;20048;-69
2022/03/07 09:59:24;;;;;;;23.30;15.57;;;3.90;98.80;;;;;;5038928;28;20045;-69
2022/03/07 10:02:04;;;;;;;21.90;15.68;;;3.90;99.50;;;;;;5033572;28;20041;-68
2022/03/07 10:04:39;;;;;;;23.08;14.85;;;4.00;99.50;;;;;;5041607;28;20045;-68
2022/03/07 10:07:06;;;;;;;20.88;13.90;;;4.40;98.60;;;;;;5001191;28;20080;-68
2022/03/07 10:09:33;;;;;;;23.23;14.38;;;4.50;97.60;;;;;;5042539;28;20793;-69
2022/03/07 10:12:02;;;;;;;20.73;14.32;;;4.40;97.80;;;;;;5035333;28;20048;-69
2022/03/07 10:14:46;;;;;;;21.75;14.38;;;4.50;98.40;;;;;;5041546;28;20492;-69
2022/03/07 10:17:26;;;;;;;20.30;13.75;;;4.60;97.40;;;;;;5044972;28;20080;-69
2022/03/07 10:19:56;;;;;;;24.02;14.75;;;4.60;97.70;;;;;;5035316;28;20038;-68
2022/03/07 10:22:26;;;;;;;23.63;14.32;;;4.70;97.40;;;;;;5033352;28;20033;-69
2022/03/07 10:25:02;;;;;;;22.20;15.00;;;5.00;97.00;;;;;;5042259;28;20052;-69
2022/03/07 10:27:37;;;;;;;23.90;14.15;;;5.30;97.10;;;;;;5037800;28;20045;-69
2022/03/07 10:30:21;;;;;;;20.50;14.27;;;5.50;96.50;;;;;;5040897;28;20075;-68
2022/03/07 10:32:56;;;;;;;24.63;14.20;;;5.60;96.00;;;;;;5037395;28;20060;-68
2022/03/07 10:35:34;;;;;;;27.83;15.63;;;5.50;96.40;;;;;;5034930;28;20092;-69
2022/03/07 10:38:07;;;;;;;22.70;14.73;;;5.50;96.50;;;;;;5025983;28;20045;-67
2022/03/07 10:40:39;;;;;;;20.60;14.18;;;5.60;96.40;;;;;;5039901;28;20075;-70
2022/03/07 10:43:07;;;;;;;21.85;14.10;;;5.80;96.10;;;;;;5030660;28;20074;-71
2022/03/07 10:45:48;;;;;;;19.90;13.52;;;5.80;96.00;;;;;;5033239;28;20049;-69
2022/03/07 10:48:17;;;;;;;22.80;13.23;;;5.80;95.40;;;;;;5020772;28;20103;-69
2022/03/07 10:50:51;;;;;;;17.33;12.07;;;5.70;95.50;;;;;;5035299;28;20095;-68
2022/03/07 10:53:19;;;;;;;19.13;12.27;;;5.80;95.50;;;;;;5046718;28;20050;-69
2022/03/07 10:55:55;;;;;;;24.08;12.30;;;6.20;95.30;;;;;;5033185;28;20060;-69
2022/03/07 10:58:24;;;;;;;17.33;12.25;;;6.20;94.50;;;;;;5049437;28;20048;-69
2022/03/07 11:00:58;;;;;;;19.20;12.77;;;6.40;94.60;;;;;;5033878;28;20049;-69
2022/03/07 11:03:31;;;;;;;16.83;11.82;;;6.60;94.60;;;;;;5031643;28;20060;-70
2022/03/07 11:06:00;;;;;;;18.27;13.38;;;6.80;93.80;;;;;;5033550;28;20412;-69
2022/03/07 11:08:28;;;;;;;18.02;11.98;;;6.90;93.90;;;;;;5033964;28;20060;-68
2022/03/07 11:10:58;;;;;;;17.27;11.63;;;7.00;93.40;;;;;;5034609;28;20045;-67
2022/03/07 11:13:30;;;;;;;18.00;12.30;;;7.10;93.00;;;;;;5035181;28;20053;-68
2022/03/07 11:16:00;;;;;;;21.13;11.82;;;7.40;93.10;;;;;;5044995;28;20047;-68
2022/03/07 11:18:29;;;;;;;15.98;10.82;;;7.70;92.30;;;;;;5042106;28;20061;-68
2022/03/07 11:20:58;;;;;;;16.85;11.05;;;8.00;91.60;;;;;;5045835;28;20052;-68
2022/03/07 11:23:26;;;;;;;16.33;10.45;;;8.10;91.20;;;;;;5029030;28;20041;-68
2022/03/07 11:25:56;;;;;;;14.35;10.15;;;8.10;91.60;;;;;;5046435;28;20049;-68
2022/03/07 11:28:28;;;;;;;14.00;9.50;;;8.30;91.20;;;;;;5048148;28;20472;-68
2022/03/07 11:30:56;;;;;;;12.80;9.43;;;8.30;91.20;;;;;;5016896;28;20528;-68
2022/03/07 11:33:36;;;;;;;16.00;9.88;;;8.40;91.00;;;;;;5027815;28;20042;-68
2022/03/07 11:36:15;;;;;;;13.93;9.15;;;8.50;90.70;;;;;;5023698;28;20038;-68
2022/03/07 11:38:53;;;;;;;13.57;9.60;;;8.70;90.40;;;;;;5033977;28;20123;-68
2022/03/07 11:41:31;;;;;;;15.50;9.88;;;8.90;90.30;;;;;;5022876;28;20124;-69
2022/03/07 11:44:06;;;;;;;13.98;9.63;;;9.00;90.20;;;;;;5026276;28;20049;-69
2022/03/07 11:46:36;;;;;;;12.48;9.52;;;9.20;89.70;;;;;;5033510;28;20148;-69
2022/03/07 11:49:07;;;;;;;13.48;9.40;;;9.60;88.40;;;;;;5033389;28;20453;-68
2022/03/07 11:51:37;;;;;;;13.98;9.90;;;9.80;87.20;;;;;;5049645;28;20489;-69
2022/03/07 11:54:07;;;;;;;16.15;9.82;;;9.80;86.70;;;;;;5034952;28;20057;-68
2022/03/07 11:56:37;;;;;;;14.80;9.77;;;10.10;86.10;;;;;;5019100;28;20057;-68
2022/03/07 11:59:11;;;;;;;12.82;8.68;;;10.60;85.40;;;;;;5025031;28;20228;-68
2022/03/07 12:01:38;;;;;;;13.70;9.13;;;10.70;83.20;;;;;;5032486;28;20084;-67
2022/03/07 12:04:14;;;;;;;12.35;8.63;;;10.80;82.40;;;;;;5033351;28;20112;-68
2022/03/07 12:06:45;;;;;;;14.48;8.18;;;10.90;82.40;;;;;;5031477;28;20373;-67
2022/03/07 12:09:33;;;;;;;11.75;8.40;;;10.80;82.00;;;;;;5033814;28;20132;-68
2022/03/07 12:12:08;;;;;;;14.60;9.05;;;10.90;81.30;;;;;;5031561;28;20069;-68
2022/03/07 12:14:43;;;;;;;11.88;7.95;;;11.00;81.00;;;;;;5032167;28;20079;-68
2022/03/07 12:17:23;;;;;;;13.38;8.70;;;11.20;80.60;;;;;;5032453;28;20068;-69
2022/03/07 12:19:58;;;;;;;12.43;7.82;;;11.60;79.10;;;;;;5032451;28;20405;-68
2022/03/07 12:22:28;;;;;;;11.57;7.55;;;11.80;79.20;;;;;;5028343;28;20044;-69
2022/03/07 12:25:00;;;;;;;9.27;6.63;;;12.00;77.40;;;;;;5032261;28;20622;-68
2022/03/07 12:27:28;;;;;;;10.70;7.20;;;11.90;76.80;;;;;;5035187;28;20484;-69
2022/03/07 12:29:55;;;;;;;10.10;7.03;;;12.00;78.00;;;;;;5050515;28;20140;-69
2022/03/07 12:32:22;;;;;;;12.73;7.72;;;12.40;76.70;;;;;;5042880;28;20052;-68
2022/03/07 12:34:49;;;;;;;12.13;8.23;;;12.50;76.30;;;;;;5017463;28;20077;-68
2022/03/07 12:37:20;;;;;;;10.50;7.63;;;12.70;75.00;;;;;;5037354;28;20231;-67
2022/03/07 12:39:52;;;;;;;12.75;7.15;;;12.60;74.90;;;;;;5048388;28;20045;-68
2022/03/07 12:42:24;;;;;;;12.02;7.82;;;13.00;74.10;;;;;;5048411;28;20051;-68
2022/03/07 12:44:52;;;;;;;10.43;7.20;;;13.10;72.70;;;;;;5038459;28;20068;-67